Bordertown, Nevada
Current Conditions -  °F | °C
As of 2:15 AM on Tuesday 21 Oct 2014 (Local Time) from KRTS Reporting Station
Clear Clear  
Wind Chill: 33°   Ceiling: Unl
Heat Index: 41°   Visibility: 10mi
Dew Point: 30°   Wind: 16mph
Humidity: 65%   Direction: 260°W
Pressure: 30.04"   Gusts: 23mph
Location:  39.7378°N, 119.889°W
Report Text: KRTS 210915Z AUTO 26014G20KT 10SM CLR 05/M01 A3004 RMK AO2
Loading
Personal Weather Stations






























Interactive Weather Map New forecast layout! Learn more

10-Day Weather Forecast

Advertisements
Track Severe Weather on mobile